Time;durP1;ratioP1;P1;durP2;ratioP2;P2;SDS_P1;SDS_P2;PMS_P1;PMS_P2;Temp;Humidity;BMP_temperature;BMP_pressure;BME280_temperature;BME280_humidity;BME280_pressure;Samples;Min_cycle;Max_cycle;Signal;HPM_P1;HPM_P2
2022/09/18 00:01:19;;;;;;;17.17;10.53;;;;;;;8.39;86.69;98928.20;1707688;83;25646;-72
2022/09/18 00:03:46;;;;;;;17.98;11.93;;;;;;;8.39;86.68;98933.05;1721058;83;26255;-73
2022/09/18 00:06:22;;;;;;;14.33;9.85;;;;;;;8.38;86.82;98929.34;1695274;83;25962;-72
2022/09/18 00:08:56;;;;;;;17.65;10.85;;;;;;;8.38;86.85;98931.47;1720382;83;27918;-71
2022/09/18 00:11:25;;;;;;;13.95;10.32;;;;;;;8.40;86.79;98932.48;1712421;83;25646;-72
2022/09/18 00:13:52;;;;;;;16.75;10.40;;;;;;;8.39;86.81;98935.75;1718239;83;25575;-72
2022/09/18 00:16:21;;;;;;;15.60;10.38;;;;;;;8.39;86.92;98934.94;1716252;83;25713;-71
2022/09/18 00:18:48;;;;;;;16.93;10.82;;;;;;;8.39;87.03;98937.09;1720191;83;25670;-72
2022/09/18 00:21:19;;;;;;;16.60;10.15;;;;;;;8.39;87.07;98938.45;1714775;83;27317;-72
2022/09/18 00:23:46;;;;;;;13.30;9.28;;;;;;;8.40;87.35;98940.01;1716994;83;25846;-72
2022/09/18 00:26:15;;;;;;;14.28;9.05;;;;;;;8.43;87.58;98942.65;1711737;83;25876;-71
2022/09/18 00:28:42;;;;;;;;;;;;;;;8.44;87.54;98943.43;1717050;83;26159;-71
2022/09/18 00:34:03;;;;;;;15.03;9.33;;;;;;;8.45;87.49;98939.63;1729162;82;27398;-71
2022/09/18 00:36:30;;;;;;;15.80;10.32;;;;;;;8.47;87.57;98938.73;1672254;84;26481;-72
2022/09/18 00:38:58;;;;;;;17.20;9.88;;;;;;;8.48;87.65;98941.11;1674280;85;25753;-72
2022/09/18 00:41:34;;;;;;;13.68;8.45;;;;;;;8.50;87.57;98945.61;1694637;84;26360;-71
2022/09/18 00:44:37;;;;;;;13.32;8.50;;;;;;;8.51;87.64;98943.16;1666989;84;25738;-71
2022/09/18 00:47:12;;;;;;;16.87;9.90;;;;;;;8.52;87.83;98937.98;1692656;84;27515;-73
2022/09/18 00:49:46;;;;;;;15.13;8.48;;;;;;;8.55;88.01;98939.24;1694519;84;26197;-72
2022/09/18 00:52:16;;;;;;;13.88;8.63;;;;;;;8.57;88.33;98940.48;1665564;84;25705;-72
2022/09/18 00:54:45;;;;;;;;;;;;;;;8.60;88.60;98937.12;1696998;84;26394;-72
2022/09/18 00:57:19;;;;;;;17.00;8.70;;;;;;;8.64;88.76;98942.66;1693038;84;25811;-72
2022/09/18 00:59:49;;;;;;;13.45;8.83;;;;;;;8.68;89.04;98940.08;1716273;83;27915;-71
2022/09/18 01:02:15;;;;;;;13.68;8.58;;;;;;;8.70;89.05;98936.49;1701258;83;25632;-72
2022/09/18 01:04:42;;;;;;;12.43;8.13;;;;;;;8.75;89.27;98940.34;1690718;84;25491;-71
2022/09/18 01:07:44;;;;;;;14.07;9.45;;;;;;;8.77;89.34;98930.81;1697214;84;25667;-72
2022/09/18 01:10:21;;;;;;;18.45;11.70;;;;;;;8.78;89.33;98928.36;1700962;84;25701;-71
2022/09/18 01:13:11;;;;;;;16.27;10.20;;;;;;;8.83;89.49;98932.74;1692469;84;27509;-72
2022/09/18 01:15:49;;;;;;;15.72;8.78;;;;;;;8.86;89.59;98929.96;1684492;84;25656;-72
2022/09/18 01:19:03;;;;;;;17.60;9.25;;;;;;;8.89;89.44;98929.31;1692115;83;25659;-72
2022/09/18 01:21:47;;;;;;;13.08;8.05;;;;;;;8.91;89.42;98922.45;1692190;84;25752;-70
2022/09/18 01:24:55;;;;;;;18.20;9.00;;;;;;;8.92;89.18;98919.99;1691379;83;25464;-74
2022/09/18 01:27:42;;;;;;;16.27;9.55;;;;;;;8.93;89.14;98924.81;1616896;88;28045;-74
2022/09/18 01:30:11;;;;;;;13.03;8.73;;;;;;;8.95;89.15;98923.92;1613169;88;25813;-72
2022/09/18 01:32:48;;;;;;;13.03;8.83;;;;;;;8.96;89.11;98918.77;1629682;86;25836;-72
2022/09/18 01:35:30;;;;;;;13.60;8.70;;;;;;;8.96;89.11;98913.38;1599106;88;25823;-71
2022/09/18 01:38:05;;;;;;;13.60;8.58;;;;;;;8.98;89.19;98917.30;1605611;88;25712;-73
2022/09/18 01:40:52;;;;;;;15.58;8.78;;;;;;;9.00;89.29;98917.54;1602049;88;27340;-72
2022/09/18 01:43:21;;;;;;;16.32;9.60;;;;;;;9.02;89.35;98924.16;1606797;88;25735;-72
2022/09/18 01:45:51;;;;;;;13.53;8.78;;;;;;;9.04;89.31;98917.09;1610468;88;25665;-72
2022/09/18 01:48:30;;;;;;;14.68;9.50;;;;;;;9.06;89.53;98918.35;1602401;88;25852;-73
2022/09/18 01:51:21;;;;;;;14.95;8.63;;;;;;;9.07;89.50;98914.52;1595922;88;25745;-70
2022/09/18 01:54:00;;;;;;;14.20;8.73;;;;;;;9.10;89.47;98914.42;1612693;88;28093;-71
2022/09/18 01:56:32;;;;;;;13.13;8.35;;;;;;;9.11;89.61;98904.66;1604918;88;25504;-72
2022/09/18 01:59:02;;;;;;;13.20;8.90;;;;;;;9.12;89.80;98902.17;1606890;88;25594;-70
2022/09/18 02:01:32;;;;;;;13.03;8.48;;;;;;;9.15;89.88;98904.78;1599401;88;25791;-71
2022/09/18 02:04:03;;;;;;;15.88;9.15;;;;;;;9.17;90.05;98901.18;1639074;85;25696;-73
2022/09/18 02:06:45;;;;;;;12.60;8.88;;;;;;;9.19;90.38;98898.93;1663857;85;27521;-72
2022/09/18 02:09:12;;;;;;;12.37;8.30;;;;;;;9.22;90.42;98895.57;1713217;82;25593;-72
2022/09/18 02:11:43;;;;;;;11.90;8.93;;;;;;;9.26;90.38;98895.69;1731205;82;25717;-72
2022/09/18 02:14:20;;;;;;;13.30;9.33;;;;;;;9.29;90.61;98896.37;1715608;82;26157;-73
2022/09/18 02:16:51;;;;;;;17.00;9.15;;;;;;;9.30;90.82;98894.70;1714532;81;25710;-74
2022/09/18 02:19:28;;;;;;;11.40;8.38;;;;;;;9.34;91.20;98895.59;1709634;82;28134;-71
2022/09/18 02:21:58;;;;;;;13.90;9.93;;;;;;;9.39;91.32;98896.52;1717934;82;25689;-71
2022/09/18 02:24:27;;;;;;;;;;;;;;;9.42;91.46;98902.60;1723214;82;25737;-72
2022/09/18 02:26:55;;;;;;;13.72;9.18;;;;;;;9.46;91.54;98899.45;1727619;82;26472;-72
2022/09/18 02:29:24;;;;;;;15.83;10.43;;;;;;;9.49;91.67;98905.53;1717833;82;25617;-72
2022/09/18 02:31:51;;;;;;;17.37;10.05;;;;;;;9.52;91.67;98894.84;1719488;82;27293;-71
2022/09/18 02:34:19;;;;;;;15.58;9.40;;;;;;;9.56;91.73;98898.23;1747201;81;25598;-71
2022/09/18 02:37:18;;;;;;;15.60;9.50;;;;;;;9.59;91.75;98894.86;1748772;81;25753;-71
2022/09/18 02:40:22;;;;;;;15.85;9.15;;;;;;;9.61;91.91;98885.29;1738660;81;25630;-72
2022/09/18 02:43:00;;;;;;;16.10;10.08;;;;;;;9.66;91.89;98891.04;1746363;81;26295;-70
2022/09/18 02:46:15;;;;;;;14.68;10.10;;;;;;;9.69;91.93;98890.38;1753148;81;27401;-71
2022/09/18 02:49:10;;;;;;;16.32;10.10;;;;;;;9.71;91.94;98888.89;1741108;81;25724;-72
2022/09/18 02:51:48;;;;;;;19.17;10.70;;;;;;;9.75;92.07;98885.52;1755479;81;25745;-71
2022/09/18 02:54:31;;;;;;;14.63;9.85;;;;;;;9.77;92.09;98882.70;1711029;82;26278;-72
2022/09/18 02:57:13;;;;;;;16.05;10.78;;;;;;;9.81;92.15;98884.19;1702990;84;25668;-72
2022/09/18 02:59:48;;;;;;;15.95;11.03;;;;;;;9.82;92.08;98878.99;1699291;84;27335;-70
2022/09/18 03:02:14;;;;;;;13.65;9.35;;;;;;;9.85;92.11;98874.27;1697651;84;25733;-70
2022/09/18 03:04:40;;;;;;;16.30;9.60;;;;;;;9.87;92.17;98872.80;1702690;84;25740;-71
2022/09/18 03:07:07;;;;;;;20.35;10.30;;;;;;;9.89;92.13;98877.31;1669259;84;25708;-71
2022/09/18 03:09:33;;;;;;;15.63;10.00;;;;;;;9.91;92.13;98864.25;1748465;81;25671;-71
2022/09/18 03:12:01;;;;;;;18.65;11.15;;;;;;;9.93;92.10;98873.37;1750090;81;27434;-71
2022/09/18 03:14:28;;;;;;;21.97;12.05;;;;;;;9.95;92.15;98870.34;1695464;84;25641;-71
2022/09/18 03:16:54;;;;;;;19.42;12.15;;;;;;;9.97;92.10;98866.16;1710307;81;41744;-71
2022/09/18 03:19:20;;;;;;;16.32;11.30;;;;;;;9.98;92.06;98869.66;1747666;81;26180;-71
2022/09/18 03:21:47;;;;;;;17.27;11.15;;;;;;;9.99;92.07;98869.30;1755992;81;25705;-71
2022/09/18 03:24:13;;;;;;;24.55;13.13;;;;;;;10.01;92.01;98876.52;1748317;81;27937;-71
2022/09/18 03:26:39;;;;;;;20.72;13.58;;;;;;;10.01;92.00;98878.41;1749074;81;25824;-70
2022/09/18 03:29:08;;;;;;;33.10;16.95;;;;;;;10.02;91.94;98879.43;1749607;81;25317;-69
2022/09/18 03:31:34;;;;;;;24.52;15.23;;;;;;;10.03;91.96;98882.37;1747808;81;25728;-70
2022/09/18 03:34:01;;;;;;;27.27;13.80;;;;;;;10.04;92.02;98887.98;1758152;81;25640;-70
2022/09/18 03:36:27;;;;;;;22.00;13.58;;;;;;;10.05;92.04;98887.43;1752539;81;27870;-71
2022/09/18 03:38:54;;;;;;;24.95;14.20;;;;;;;10.08;92.01;98892.94;1751680;81;25676;-70
2022/09/18 03:41:21;;;;;;;25.48;14.30;;;;;;;10.10;91.99;98892.03;1759265;81;25665;-70
2022/09/18 03:43:48;;;;;;;16.97;12.58;;;;;;;10.10;91.93;98890.68;1757889;81;25695;-70
2022/09/18 03:46:21;;;;;;;16.80;12.80;;;;;;;10.12;91.97;98893.05;1751810;81;25631;-70
2022/09/18 03:48:43;;;;;;;20.20;12.23;;;;;;;10.13;91.93;98894.63;1759320;81;27315;-71
2022/09/18 03:51:09;;;;;;;20.57;12.00;;;;;;;10.13;91.89;98901.39;1754213;81;25610;-72
2022/09/18 03:53:36;;;;;;;17.62;13.13;;;;;;;10.14;91.92;98901.59;1759128;81;25788;-72
2022/09/18 03:56:02;;;;;;;19.85;14.35;;;;;;;10.15;91.90;98901.83;1753022;81;26245;-72
2022/09/18 03:58:28;;;;;;;19.52;14.18;;;;;;;10.17;91.85;98905.55;1758413;81;25596;-72
2022/09/18 04:00:55;;;;;;;21.85;13.08;;;;;;;10.17;91.80;98902.27;1756485;81;27329;-72
2022/09/18 04:03:21;;;;;;;18.00;11.88;;;;;;;10.19;91.81;98909.47;1752497;81;25708;-72
2022/09/18 04:05:49;;;;;;;19.20;9.65;;;;;;;10.19;91.75;98905.41;1755929;81;25670;-72
2022/09/18 04:08:17;;;;;;;16.15;10.05;;;;;;;10.19;91.73;98908.69;1758849;81;25663;-70
2022/09/18 04:10:48;;;;;;;18.50;9.90;;;;;;;10.21;91.76;98906.42;1759174;81;25621;-70
2022/09/18 04:13:15;;;;;;;18.82;11.68;;;;;;;10.21;91.72;98909.13;1759030;81;27364;-70
2022/09/18 04:15:44;;;;;;;25.82;9.93;;;;;;;10.21;91.74;98913.19;1754183;81;25427;-70
2022/09/18 04:18:11;;;;;;;13.68;10.68;;;;;;;10.21;91.81;98908.56;1729910;82;49770;-70
2022/09/18 04:20:37;;;;;;;29.07;26.33;;;;;;;10.23;91.78;98908.22;1703179;84;25734;-71
2022/09/18 04:23:04;;;;;;;22.50;17.35;;;;;;;10.24;91.83;98911.94;1706235;82;25693;-71
2022/09/18 04:25:30;;;;;;;18.42;10.50;;;;;;;10.25;91.82;98914.09;1720842;82;27330;-70
2022/09/18 04:27:56;;;;;;;19.57;9.50;;;;;;;10.25;91.83;98908.12;1733311;82;25701;-70
2022/09/18 04:30:23;;;;;;;17.70;9.58;;;;;;;10.25;91.88;98902.72;1747786;81;25632;-70
2022/09/18 04:32:50;;;;;;;16.90;9.63;;;;;;;10.26;91.85;98904.27;1748940;81;26176;-69
2022/09/18 04:35:17;;;;;;;16.70;9.15;;;;;;;10.27;91.87;98907.21;1759398;81;25743;-72
2022/09/18 04:37:44;;;;;;;14.53;8.85;;;;;;;10.29;91.89;98910.36;1754359;81;27865;-70
2022/09/18 04:40:10;;;;;;;14.50;10.23;;;;;;;10.31;91.91;98906.53;1749080;81;25700;-70
2022/09/18 04:42:37;;;;;;;18.65;11.38;;;;;;;10.31;91.91;98910.02;1708814;82;25651;-70
2022/09/18 04:45:07;;;;;;;20.85;12.15;;;;;;;10.32;91.86;98909.47;1733800;82;25711;-70
2022/09/18 04:47:33;;;;;;;19.95;12.00;;;;;;;10.31;91.86;98900.56;1730467;82;25439;-70
2022/09/18 04:49:59;;;;;;;23.10;12.43;;;;;;;10.33;91.90;98898.90;1759185;81;27310;-70
2022/09/18 04:52:26;;;;;;;21.02;15.50;;;;;;;10.36;92.01;98903.63;1759150;81;25629;-70
2022/09/18 04:54:52;;;;;;;18.65;11.93;;;;;;;10.36;92.01;98901.70;1759349;81;25692;-71
2022/09/18 04:57:19;;;;;;;27.27;12.00;;;;;;;10.38;92.05;98898.09;1758663;81;25617;-70
2022/09/18 04:59:45;;;;;;;22.70;12.63;;;;;;;10.39;92.00;98899.67;1759113;81;25815;-70
2022/09/18 05:02:11;;;;;;;19.75;10.93;;;;;;;10.42;91.99;98907.65;1757108;81;27933;-71
2022/09/18 05:04:37;;;;;;;20.97;12.28;;;;;;;10.43;91.99;98901.13;1755813;81;25677;-70
2022/09/18 05:07:05;;;;;;;22.98;13.90;;;;;;;10.44;92.04;98900.79;1754846;81;25879;-71
2022/09/18 05:09:32;;;;;;;17.10;10.70;;;;;;;10.46;92.03;98899.88;1759621;81;25810;-71
2022/09/18 05:11:58;;;;;;;19.45;12.63;;;;;;;10.48;92.03;98904.95;1752080;81;25712;-71
2022/09/18 05:14:24;;;;;;;25.85;12.28;;;;;;;10.49;91.99;98907.08;1752962;81;27383;-70
2022/09/18 05:16:51;;;;;;;22.95;11.40;;;;;;;10.49;92.04;98905.18;1757238;81;30462;-71
2022/09/18 05:19:17;;;;;;;25.15;15.83;;;;;;;10.52;92.05;98905.05;1759392;80;25544;-71
2022/09/18 05:21:43;;;;;;;24.72;13.70;;;;;;;10.53;92.01;98905.28;1759583;80;26190;-71
2022/09/18 05:24:12;;;;;;;30.35;14.25;;;;;;;10.55;91.96;98910.55;1755078;81;25711;-71
2022/09/18 05:26:38;;;;;;;22.62;13.32;;;;;;;10.55;91.84;98909.77;1759336;80;27949;-71
2022/09/18 05:29:04;;;;;;;21.93;13.95;;;;;;;10.57;91.97;98910.21;1741111;81;25552;-71
2022/09/18 05:31:31;;;;;;;20.52;14.63;;;;;;;10.59;92.02;98906.05;1757744;80;25615;-71
2022/09/18 05:33:57;;;;;;;27.37;12.40;;;;;;;10.62;92.19;98908.63;1718980;82;25806;-71
2022/09/18 05:36:23;;;;;;;32.73;29.57;;;;;;;10.64;92.15;98907.70;1723580;83;25610;-71
2022/09/18 05:38:50;;;;;;;22.30;13.48;;;;;;;10.65;92.06;98906.59;1720803;82;27315;-71
2022/09/18 05:41:17;;;;;;;23.80;12.78;;;;;;;10.67;91.97;98907.02;1724180;82;25666;-71
2022/09/18 05:43:43;;;;;;;21.65;11.95;;;;;;;10.68;91.98;98907.26;1702241;82;26212;-71
2022/09/18 05:46:10;;;;;;;20.08;12.13;;;;;;;10.70;92.07;98905.57;1723336;83;25598;-71
2022/09/18 05:48:37;;;;;;;23.00;13.88;;;;;;;10.72;92.08;98906.00;1719231;82;25723;-73
2022/09/18 05:51:04;;;;;;;31.25;15.32;;;;;;;10.69;91.89;98898.00;1687444;84;27332;-72
2022/09/18 05:53:30;;;;;;;31.33;17.48;;;;;;;10.70;92.16;98904.99;1689754;84;25705;-72
2022/09/18 05:55:59;;;;;;;29.00;16.85;;;;;;;10.72;92.29;98907.36;1720707;82;26527;-71
2022/09/18 05:58:26;;;;;;;26.70;15.72;;;;;;;10.73;92.48;98904.89;1720242;82;26196;-71
2022/09/18 06:01:08;;;;;;;;;;;;;;;;;;;;;
2022/09/18 06:03:25;;;;;;;25.85;15.30;;;;;;;10.75;92.54;98910.73;1601842;88;28946;-73
2022/09/18 06:05:53;;;;;;;22.50;13.78;;;;;;;10.74;92.39;98911.85;1604378;88;25680;-71
2022/09/18 06:08:21;;;;;;;27.02;13.95;;;;;;;10.75;92.45;98906.10;1601852;88;25875;-72
2022/09/18 06:10:48;;;;;;;30.60;15.10;;;;;;;10.74;92.57;98907.80;1606240;89;25792;-72
2022/09/18 06:13:17;;;;;;;25.43;15.75;;;;;;;10.76;92.73;98909.59;1605536;89;25706;-72
2022/09/18 06:15:47;;;;;;;26.57;14.60;;;;;;;10.77;92.71;98911.95;1605254;88;27329;-72
2022/09/18 06:18:15;;;;;;;23.40;15.25;;;;;;;10.77;92.56;98918.71;1623405;86;52028;-72
2022/09/18 06:20:43;;;;;;;22.45;12.95;;;;;;;10.75;92.47;98918.27;1633306;86;25896;-72
2022/09/18 06:23:10;;;;;;;22.45;14.07;;;;;;;10.75;92.47;98916.14;1626354;86;25911;-71
2022/09/18 06:25:37;;;;;;;22.10;15.98;;;;;;;10.76;92.42;98921.75;1634024;86;25697;-72
2022/09/18 06:28:05;;;;;;;23.87;17.80;;;;;;;10.74;92.48;98918.04;1641071;86;27483;-73
2022/09/18 06:30:36;;;;;;;25.30;14.73;;;;;;;10.74;92.47;98915.33;1634894;86;25364;-72
2022/09/18 06:33:06;;;;;;;30.32;14.83;;;;;;;10.74;92.41;98922.09;1634617;86;25945;-73
2022/09/18 06:35:34;;;;;;;34.45;15.90;;;;;;;10.75;92.56;98914.22;1669432;83;25623;-72
2022/09/18 06:38:03;;;;;;;26.35;14.95;;;;;;;10.76;92.52;98926.63;1682097;83;25714;-73
2022/09/18 06:40:32;;;;;;;24.60;14.73;;;;;;;10.76;92.52;98921.75;1687111;84;27304;-73
2022/09/18 06:43:01;;;;;;;27.10;14.30;;;;;;;10.77;92.69;98920.64;1694106;84;25918;-72
2022/09/18 06:45:29;;;;;;;29.57;15.75;;;;;;;10.76;92.69;98927.97;1672519;83;25774;-73
2022/09/18 06:48:01;;;;;;;24.02;13.28;;;;;;;10.77;92.70;98920.06;1678909;84;25754;-72
2022/09/18 06:50:28;;;;;;;21.82;14.00;;;;;;;10.76;92.54;98923.11;1680894;84;25695;-71
2022/09/18 06:53:00;;;;;;;27.98;14.63;;;;;;;10.75;92.37;98926.39;1680923;84;27864;-72
2022/09/18 06:55:27;;;;;;;18.10;12.47;;;;;;;10.74;92.41;98924.02;1679871;84;25553;-66
2022/09/18 06:57:55;;;;;;;24.07;13.32;;;;;;;10.73;92.78;98925.17;1679124;84;25746;-71
2022/09/18 07:00:23;;;;;;;23.02;15.23;;;;;;;10.71;92.73;98924.16;1673675;83;26003;-72
2022/09/18 07:03:02;;;;;;;27.35;14.55;;;;;;;10.70;92.81;98927.20;1692072;84;25931;-72
2022/09/18 07:05:31;;;;;;;24.70;14.15;;;;;;;10.66;93.12;98923.05;1694199;84;27963;-72
2022/09/18 07:07:59;;;;;;;23.57;13.00;;;;;;;10.63;93.04;98924.50;1693827;83;25842;-73
2022/09/18 07:10:26;;;;;;;23.95;13.28;;;;;;;10.61;93.09;98919.23;1686851;84;25730;-74
2022/09/18 07:12:57;;;;;;;24.05;13.90;;;;;;;10.58;93.17;98919.34;1685583;84;25779;-72
2022/09/18 07:15:24;;;;;;;22.65;14.43;;;;;;;10.56;93.01;98923.53;1693663;84;25754;-72
2022/09/18 07:17:51;;;;;;;25.85;14.83;;;;;;;10.54;93.11;98924.41;1710840;83;49027;-73
2022/09/18 07:20:18;;;;;;;24.60;15.13;;;;;;;10.53;93.68;98924.20;1725216;83;25780;-74
2022/09/18 07:22:54;;;;;;;22.02;13.83;;;;;;;10.52;93.79;98923.97;1722651;83;25416;-74
2022/09/18 07:25:22;;;;;;;15.23;11.63;;;;;;;10.52;93.90;98925.32;1717405;83;25789;-73
2022/09/18 07:27:49;;;;;;;20.97;13.20;;;;;;;10.51;94.06;98925.11;1705517;83;25433;-73
2022/09/18 07:30:17;;;;;;;16.67;11.20;;;;;;;10.51;94.01;98929.17;1708724;83;27356;-73
2022/09/18 07:32:43;;;;;;;18.23;12.93;;;;;;;10.48;93.77;98927.92;1722957;83;25598;-74
2022/09/18 07:35:11;;;;;;;17.23;11.95;;;;;;;10.45;93.72;98930.76;1714216;82;26429;-74
2022/09/18 07:37:38;;;;;;;14.07;10.82;;;;;;;10.45;93.83;98936.70;1728404;82;25818;-74
2022/09/18 07:40:08;;;;;;;17.85;10.88;;;;;;;10.42;93.90;98939.55;1721103;82;25760;-74
2022/09/18 07:42:34;;;;;;;;;;;;;;;10.41;94.01;98937.95;1727996;82;27381;-75
2022/09/18 07:45:01;;;;;;;18.07;10.98;;;;;;;10.42;94.40;98932.78;1724195;82;25687;-75
2022/09/18 07:47:27;;;;;;;18.80;12.13;;;;;;;10.43;94.44;98934.91;1723108;82;25725;-73
2022/09/18 07:49:54;;;;;;;17.87;13.22;;;;;;;10.40;94.34;98934.23;1726382;82;26733;-73
2022/09/18 07:52:20;;;;;;;25.55;18.62;;;;;;;10.37;94.15;98933.02;1729673;82;25750;-73
2022/09/18 07:54:46;;;;;;;19.07;14.25;;;;;;;10.38;94.37;98935.93;1736669;82;27303;-73
2022/09/18 07:57:13;;;;;;;18.42;12.03;;;;;;;10.37;94.20;98941.67;1732510;82;25923;-74
2022/09/18 07:59:39;;;;;;;15.25;11.88;;;;;;;10.35;94.29;98940.69;1733097;82;25801;-74
2022/09/18 08:02:05;;;;;;;17.80;13.93;;;;;;;10.33;94.19;98941.56;1729984;82;26249;-74
2022/09/18 08:04:32;;;;;;;14.95;12.58;;;;;;;10.26;93.50;98947.51;1735179;82;25479;-75
2022/09/18 08:07:02;;;;;;;16.40;14.68;;;;;;;10.20;93.58;98942.67;1730458;82;27484;-75
2022/09/18 08:09:26;;;;;;;18.75;16.75;;;;;;;10.15;93.61;98941.55;1708594;82;25784;-75
2022/09/18 08:11:53;;;;;;;22.87;20.90;;;;;;;10.13;93.91;98943.27;1729813;82;25647;-77
2022/09/18 08:14:19;;;;;;;12.78;8.25;;;;;;;10.12;94.20;98940.91;1733794;82;25874;-76
2022/09/18 08:16:45;;;;;;;13.90;9.48;;;;;;;10.11;94.49;98940.09;1719939;82;25783;-75
2022/09/18 08:19:12;;;;;;;15.08;10.68;;;;;;;10.11;94.52;98942.80;1732836;82;27334;-73
2022/09/18 08:21:38;;;;;;;12.95;10.65;;;;;;;10.15;94.86;98946.95;1724358;82;25995;-73
2022/09/18 08:24:05;;;;;;;16.30;12.47;;;;;;;10.16;95.00;98936.38;1732006;81;25644;-74
2022/09/18 08:26:34;;;;;;;28.83;25.88;;;;;;;10.14;94.56;98947.53;1732954;82;25742;-75
2022/09/18 08:28:59;;;;;;;16.52;14.80;;;;;;;10.10;94.12;98950.12;1731786;82;25810;-73
2022/09/18 08:31:25;;;;;;;17.10;15.30;;;;;;;10.08;94.33;98956.43;1728643;82;27320;-74
2022/09/18 08:33:52;;;;;;;13.65;12.20;;;;;;;10.06;94.36;98951.94;1699848;82;25782;-72
2022/09/18 08:36:18;;;;;;;19.98;18.20;;;;;;;10.08;94.61;98955.65;1731970;81;25720;-72
2022/09/18 08:38:44;;;;;;;17.25;13.60;;;;;;;10.08;94.52;98955.65;1725336;82;25678;-72
2022/09/18 08:41:16;;;;;;;12.13;9.30;;;;;;;10.09;94.84;98952.59;1731173;82;25757;-74
2022/09/18 08:43:57;;;;;;;16.57;10.72;;;;;;;10.15;95.17;98955.87;1728324;82;27501;-71
2022/09/18 08:46:39;;;;;;;18.57;16.57;;;;;;;10.15;94.65;98949.66;1735619;82;26297;-73
2022/09/18 08:49:32;;;;;;;18.32;11.83;;;;;;;10.12;94.14;98955.76;1730017;82;25692;-74
2022/09/18 08:52:13;;;;;;;18.10;10.82;;;;;;;10.11;94.00;98956.30;1735181;82;27178;-73
2022/09/18 08:54:55;;;;;;;17.62;11.78;;;;;;;10.15;94.73;98957.77;1725573;82;25704;-74
2022/09/18 08:57:43;;;;;;;15.55;11.63;;;;;;;10.17;95.04;98960.37;1725434;82;27339;-73
2022/09/18 09:00:24;;;;;;;14.47;11.28;;;;;;;10.28;96.41;98961.50;1728936;82;25612;-73
2022/09/18 09:02:57;;;;;;;24.35;16.55;;;;;;;10.38;96.49;98960.25;1708340;82;25694;-73
2022/09/18 09:05:32;;;;;;;20.92;13.38;;;;;;;10.40;95.64;98965.33;1733915;82;25816;-74
2022/09/18 09:08:31;;;;;;;17.90;14.28;;;;;;;10.44;95.71;98964.31;1721233;82;25603;-73
2022/09/18 09:11:17;;;;;;;16.37;13.63;;;;;;;10.47;95.54;98961.48;1726562;82;27493;-74
2022/09/18 09:14:13;;;;;;;18.57;15.00;;;;;;;10.53;95.56;98966.89;1721587;82;25738;-72
2022/09/18 09:17:06;;;;;;;12.47;10.03;;;;;;;10.63;96.61;98965.64;1728010;82;25746;-72
2022/09/18 09:19:44;;;;;;;16.10;12.58;;;;;;;10.67;95.72;98973.85;1726587;82;25936;-72
2022/09/18 09:22:59;;;;;;;18.82;16.30;;;;;;;10.64;94.40;98973.95;1730805;82;25795;-71
2022/09/18 09:25:34;;;;;;;18.87;15.98;;;;;;;10.68;94.84;98974.09;1734939;82;28023;-71
2022/09/18 09:28:14;;;;;;;27.00;24.18;;;;;;;10.77;95.58;98977.44;1726694;82;25805;-72
2022/09/18 09:30:43;;;;;;;14.55;9.95;;;;;;;10.79;95.27;98963.00;1726958;82;25672;-71
2022/09/18 09:33:26;;;;;;;18.00;13.60;;;;;;;10.82;94.95;98967.16;1726473;82;25698;-70
2022/09/18 09:35:58;;;;;;;16.60;11.70;;;;;;;10.89;95.46;98976.04;1733453;82;25619;-71
2022/09/18 09:38:54;;;;;;;14.35;9.23;;;;;;;10.97;95.76;98972.98;1726325;82;27956;-71
2022/09/18 09:41:37;;;;;;;13.65;12.33;;;;;;;11.00;95.50;98970.38;1641232;87;25850;-72
2022/09/18 09:44:30;;;;;;;19.45;12.47;;;;;;;11.06;95.23;98976.33;1634491;85;25710;-71
2022/09/18 09:47:14;;;;;;;16.05;11.05;;;;;;;11.11;95.22;98973.95;1640919;87;26201;-71
2022/09/18 09:50:03;;;;;;;15.23;12.65;;;;;;;11.15;95.06;98976.17;1643736;87;25761;-71
2022/09/18 09:52:30;;;;;;;26.42;24.10;;;;;;;11.21;95.93;98973.45;1640672;87;27078;-70
2022/09/18 09:55:03;;;;;;;51.98;48.33;;;;;;;11.32;96.52;98982.66;1645459;85;25933;-71
2022/09/18 09:58:04;;;;;;;26.33;23.87;;;;;;;11.40;96.68;98979.56;1640512;87;25837;-71
2022/09/18 10:00:40;;;;;;;25.52;23.07;;;;;;;11.46;96.35;98985.51;1639623;87;25918;-71
2022/09/18 10:03:46;;;;;;;35.83;32.65;;;;;;;11.58;98.15;98983.53;1635564;87;25804;-72
2022/09/18 10:06:33;;;;;;;24.95;20.12;;;;;;;11.67;97.45;98981.23;1640631;87;27353;-70
2022/09/18 10:09:22;;;;;;;39.58;18.90;;;;;;;11.80;98.14;98990.86;1639967;87;25683;-72
2022/09/18 10:11:54;;;;;;;27.80;17.00;;;;;;;11.99;99.56;98992.91;1642819;87;26388;-72
2022/09/18 10:14:24;;;;;;;16.12;12.55;;;;;;;12.09;98.75;98990.25;1642519;87;25761;-72
2022/09/18 10:16:54;;;;;;;23.30;18.12;;;;;;;12.13;97.07;98997.30;1635811;85;115887;-69
2022/09/18 10:19:24;;;;;;;;;;;;;;;12.19;97.16;98992.97;1712746;83;27331;-71
2022/09/18 10:21:53;;;;;;;21.30;16.30;;;;;;;12.27;97.22;99003.63;1700278;83;25744;-72
2022/09/18 10:24:43;;;;;;;24.82;15.40;;;;;;;12.39;97.92;99001.38;1710675;83;26405;-72
2022/09/18 10:27:13;;;;;;;15.35;13.90;;;;;;;12.41;96.06;99005.10;1710659;83;25789;-71
2022/09/18 10:29:41;;;;;;;16.40;12.85;;;;;;;12.39;94.79;99001.96;1723262;83;25747;-73
2022/09/18 10:32:11;;;;;;;14.53;10.15;;;;;;;12.41;95.31;99010.52;1714780;83;27347;-71
2022/09/18 10:34:41;;;;;;;19.62;17.77;;;;;;;12.43;95.96;99003.63;1717616;83;35597;-71
2022/09/18 10:37:31;;;;;;;12.95;11.78;;;;;;;12.48;95.44;99006.61;1717917;83;25680;-71
2022/09/18 10:40:00;;;;;;;;;;;;;;;12.46;95.02;99005.64;1714412;83;26567;-69
2022/09/18 10:42:32;;;;;;;64.25;60.17;;;;;;;12.49;94.47;99004.13;1723203;83;25662;-71
2022/09/18 10:45:05;;;;;;;12.63;9.23;;;;;;;12.55;96.13;99000.56;1724314;83;26850;-71
2022/09/18 10:47:35;;;;;;;11.85;8.93;;;;;;;12.54;94.53;99002.50;1722872;82;25810;-72
2022/09/18 10:50:13;;;;;;;8.08;5.28;;;;;;;12.50;93.12;99004.36;1726601;82;25847;-70
2022/09/18 10:52:45;;;;;;;10.10;7.37;;;;;;;12.47;92.76;99009.91;1723283;82;26333;-69
2022/09/18 10:55:16;;;;;;;9.28;8.33;;;;;;;12.50;93.79;99013.27;1720547;83;25737;-72
2022/09/18 10:57:57;;;;;;;10.82;8.13;;;;;;;12.57;94.85;98999.67;1724918;83;27285;-70
2022/09/18 11:00:31;;;;;;;69.77;65.05;;;;;;;12.59;93.04;99000.09;1726489;82;26391;-71
2022/09/18 11:03:33;;;;;;;10.63;7.47;;;;;;;12.63;93.98;99009.89;1723037;83;26346;-71
2022/09/18 11:06:04;;;;;;;10.25;7.40;;;;;;;12.67;95.02;99003.19;1724370;83;26330;-70
2022/09/18 11:08:38;;;;;;;9.05;8.13;;;;;;;12.67;94.12;98999.12;1726814;83;25702;-72
2022/09/18 11:11:09;;;;;;;8.00;6.08;;;;;;;12.74;94.24;99005.27;1723190;83;27326;-70
2022/09/18 11:13:42;;;;;;;10.48;8.75;;;;;;;12.80;94.69;99008.68;1726066;83;25674;-71
2022/09/18 11:16:08;;;;;;;12.15;11.03;;;;;;;12.78;93.21;99008.83;1724657;82;25803;-71
2022/09/18 11:18:35;;;;;;;16.87;6.85;;;;;;;12.83;92.95;99011.27;1702097;83;77703;-70
2022/09/18 11:21:05;;;;;;;6.72;4.97;;;;;;;12.78;91.13;99011.55;1704345;83;25795;-70
2022/09/18 11:23:34;;;;;;;6.20;4.50;;;;;;;12.75;90.64;99004.11;1710410;83;28025;-70
2022/09/18 11:26:20;;;;;;;9.48;8.25;;;;;;;12.71;90.74;99006.17;1710346;83;25846;-70
2022/09/18 11:29:05;;;;;;;6.45;5.33;;;;;;;12.74;92.09;99009.34;1602023;87;25491;-70
2022/09/18 11:31:40;;;;;;;6.20;3.58;;;;;;;12.76;91.94;99008.41;1620762;87;25809;-70
2022/09/18 11:34:26;;;;;;;5.58;3.70;;;;;;;12.81;92.39;99006.77;1611424;87;25843;-69
2022/09/18 11:37:04;;;;;;;6.90;3.95;;;;;;;12.84;91.38;99008.78;1613798;87;27336;-72
2022/09/18 11:39:41;;;;;;;6.03;4.33;;;;;;;12.78;91.13;99010.97;1614817;88;25772;-70
2022/09/18 11:42:13;;;;;;;8.90;5.55;;;;;;;12.74;90.09;99009.34;1617320;87;26316;-71
2022/09/18 11:44:40;;;;;;;4.25;3.52;;;;;;;12.74;91.24;99006.62;1612356;87;25757;-71
2022/09/18 11:47:33;;;;;;;7.58;4.00;;;;;;;12.71;90.63;99008.89;1608808;87;25725;-71
2022/09/18 11:50:14;;;;;;;5.65;3.35;;;;;;;12.67;90.35;99003.19;1609652;87;28379;-72
2022/09/18 11:52:48;;;;;;;6.47;4.17;;;;;;;12.66;90.22;99005.09;1629361;87;25738;-70